Ferdig, Montana
Current Conditions -  °F | °C
As of 7:56 AM on Saturday 22 Nov 2014 (Local Time) from KCTB Reporting Station
Clear Clear  
Wind Chill: 26°   Ceiling: Unl
Heat Index: 38°   Visibility: 10mi
Dew Point: 27°   Wind: 28mph
Humidity: 65%   Direction: 240°WSW
Pressure: 29.18"   Gusts: 36mph
Location:  48.7543°N, 111.774°W
Report Text: KCTB 221456Z AUTO 24024G31KT 10SM CLR 03/M03 A2918 RMK AO2 PK WND 25034/1437 SLP890 T00331028 56012
Loading
Personal Weather Stations






























Interactive Weather Map New forecast layout! Learn more

10-Day Weather Forecast

Advertisements
Track Severe Weather on mobile